Accueil
METAR-TAF:

METAR-TAF

Aéroports :

Nadi, Fidji

Aéroport international de Nadi

latitude: 17-45S, longitude: 177-27E, altitude: 13 m

Observation

Le bulletin a été fait il y a 42 minutes, à 09:00 UTC
Vent 5 kt de nord-est
Température 27°C
Humidité 74%
Pression 1006 hPa
Visibilité 10 km ou plus
Quelques nuages à une hauteur de 2800 ft

METAR: NFFN 240900Z 05005KT 9999 FEW028 27/22 Q1006 NOSIG

Heure: 21:42 (09:42 UTC)

Prévision

Le bulletin a été fait il y a 4 heures et 27 minutes, à 05:15 UTC
Prévision valable du 24 à 06 UTC au 25 à 06 UTC
Vent 10 kt de ouest/nord-ouest
Visibilité 10 km ou plus
Nuages épars à une hauteur de 2800 ft
Evoluant progressivement
du 24 à 07 UTC au 24 à 09 UTC
Vent 5 kt de est
Evoluant progressivement
du 24 à 22 UTC au 24 à 24 UTC
Vent 10 kt de ouest/nord-ouest

TAF: NFFN 240515Z 2406/2506 29010KT 9999 SCT028 BECMG 2407/2409 10005KT BECMG 2422/2424 29010KT

Observations et prévisions météorologiques de plus de 4000 aéroports (messages METAR et TAF).

Les stations disponibles sont représentées par des disques jaunes et rouges sur la carte.

Passer la souris dessus pour voir le nom de la station.

Cliquer dessus pour voir les observations et prévisions météorologiques.

Pour changer de carte: cliquez sur les boutons verts avec une croix noire pour zoomer, sur le bouton vert avec un tiret pour effectuer un zoom arrière, ou sur les flèches vertes pour les cartes adjacentes.


METAR-TAF: